Time;durP1;ratioP1;P1;durP2;ratioP2;P2;SDS_P1;SDS_P2;PMS_P1;PMS_P2;Temp;Humidity;BMP_temperature;BMP_pressure;BME280_temperature;BME280_humidity;BME280_pressure;Samples;Min_cycle;Max_cycle;Signal;HPM_P1;HPM_P2
2023/05/18 00:00:13;;;;;;;7.18;2.50;;;;;;;9.73;72.86;102797.34;4953808;28;20475;-71
2023/05/18 00:02:40;;;;;;;7.75;2.72;;;;;;;9.62;72.33;102782.25;4967204;28;20499;-72
2023/05/18 00:05:09;;;;;;;11.35;3.00;;;;;;;9.60;73.41;102797.22;4944599;28;20076;-71
2023/05/18 00:07:36;;;;;;;7.28;2.63;;;;;;;9.56;73.34;102797.50;4961415;28;20058;-71
2023/05/18 00:10:02;;;;;;;6.55;2.70;;;;;;;9.53;73.58;102795.91;4954066;28;20070;-71
2023/05/18 00:12:29;;;;;;;7.88;2.58;;;;;;;9.50;72.65;102796.09;4955495;28;20101;-71
2023/05/18 00:14:56;;;;;;;10.50;2.50;;;;;;;9.48;74.19;102792.72;4959493;28;20208;-70
2023/05/18 00:17:23;;;;;;;13.50;2.97;;;;;;;9.43;74.75;102787.75;4962623;28;20055;-72
2023/05/18 00:19:49;;;;;;;11.02;2.80;;;;;;;9.36;75.90;102794.28;4961942;28;20482;-70
2023/05/18 00:22:19;;;;;;;9.20;2.05;;;;;;;9.33;76.09;102791.84;4968634;28;20101;-70
2023/05/18 00:24:46;;;;;;;9.93;2.47;;;;;;;9.33;75.09;102797.09;4959924;28;20054;-71
2023/05/18 00:27:13;;;;;;;6.22;1.80;;;;;;;9.34;73.45;102793.53;4954887;28;20051;-71
2023/05/18 00:29:40;;;;;;;13.00;3.05;;;;;;;9.35;74.50;102799.59;4963303;28;20050;-70
2023/05/18 00:32:08;;;;;;;5.50;1.90;;;;;;;9.39;72.70;102794.13;4951062;28;20580;-71
2023/05/18 00:34:34;;;;;;;7.30;2.10;;;;;;;9.39;74.51;102798.50;4953976;28;20082;-72
2023/05/18 00:37:01;;;;;;;10.02;1.95;;;;;;;9.35;75.17;102789.13;4962447;28;20082;-71
2023/05/18 00:39:28;;;;;;;4.45;1.85;;;;;;;9.37;73.96;102795.97;4964936;28;20059;-71
2023/05/18 00:41:54;;;;;;;5.97;1.80;;;;;;;9.40;73.24;102794.94;4942848;28;20062;-70
2023/05/18 00:44:21;;;;;;;10.07;2.30;;;;;;;9.41;75.11;102801.84;4960517;28;20236;-71
2023/05/18 00:46:48;;;;;;;7.38;2.05;;;;;;;9.40;73.86;102798.41;4962779;28;20059;-71
2023/05/18 00:49:16;;;;;;;5.33;2.30;;;;;;;9.36;74.31;102798.69;4959726;28;20054;-71
2023/05/18 00:51:43;;;;;;;5.75;1.95;;;;;;;9.33;74.29;102802.34;4981335;28;20296;-71
2023/05/18 00:54:09;;;;;;;7.68;2.05;;;;;;;9.30;74.01;102798.09;4954977;28;20050;-71
2023/05/18 00:56:40;;;;;;;5.65;2.08;;;;;;;9.33;73.63;102797.09;4965642;28;20109;-71
2023/05/18 00:59:09;;;;;;;9.43;2.40;;;;;;;9.28;74.57;102799.97;4957867;28;20141;-72
2023/05/18 01:01:42;;;;;;;;;;;;;;;9.32;73.94;102800.63;4976383;28;20130;-71
2023/05/18 01:04:09;;;;;;;10.77;2.47;;;;;;;9.34;74.37;102809.25;4964509;28;19941;-71
2023/05/18 01:06:35;;;;;;;10.77;2.15;;;;;;;9.32;75.15;102807.66;4967240;28;20054;-72
2023/05/18 01:09:04;;;;;;;7.32;2.33;;;;;;;9.27;74.89;102803.53;4943017;28;20121;-72
2023/05/18 01:11:52;;;;;;;9.85;2.90;;;;;;;9.19;74.88;102805.75;4954093;28;20137;-71
2023/05/18 01:14:28;;;;;;;6.28;1.83;;;;;;;9.17;75.17;102810.22;4956649;28;20051;-72
2023/05/18 01:17:16;;;;;;;8.00;2.40;;;;;;;9.14;76.11;102806.94;4942731;28;20109;-71
2023/05/18 01:20:06;;;;;;;6.90;2.10;;;;;;;9.16;76.07;102810.31;4961765;28;20679;-71
2023/05/18 01:23:04;;;;;;;6.57;2.03;;;;;;;9.14;75.71;102810.41;4954481;28;20480;-72
2023/05/18 01:25:49;;;;;;;7.00;1.92;;;;;;;9.12;75.79;102816.66;4954236;28;20591;-72
2023/05/18 01:28:20;;;;;;;4.53;1.88;;;;;;;9.13;74.87;102813.94;4956068;28;20707;-72
2023/05/18 01:30:47;;;;;;;6.28;2.00;;;;;;;9.08;75.53;102813.38;4956692;28;20539;-72
2023/05/18 01:33:13;;;;;;;7.75;2.47;;;;;;;8.96;76.39;102812.31;4960141;28;20073;-72
2023/05/18 01:35:46;;;;;;;9.23;1.98;;;;;;;8.94;76.08;102816.78;4967125;28;20108;-72
2023/05/18 01:38:15;;;;;;;5.95;1.73;;;;;;;8.89;76.38;102803.94;4953427;28;20061;-71
2023/05/18 01:40:52;;;;;;;9.10;2.50;;;;;;;8.92;77.32;102816.03;4968348;28;20643;-72
2023/05/18 01:43:22;;;;;;;8.52;2.25;;;;;;;8.90;77.18;102813.50;4966115;28;20039;-72
2023/05/18 01:45:54;;;;;;;5.75;1.88;;;;;;;8.86;77.44;102818.97;4959287;28;20062;-72
2023/05/18 01:48:24;;;;;;;9.30;2.53;;;;;;;8.82;77.85;102822.69;4963579;28;20055;-71
2023/05/18 01:50:57;;;;;;;8.70;2.55;;;;;;;8.79;78.31;102825.50;4935896;28;20131;-72
2023/05/18 01:53:36;;;;;;;4.55;2.20;;;;;;;8.77;78.26;102822.13;4964088;28;20046;-72
2023/05/18 01:56:07;;;;;;;8.65;2.55;;;;;;;8.74;78.92;102827.50;4957321;28;20059;-71
2023/05/18 01:58:36;;;;;;;7.45;2.20;;;;;;;8.75;78.65;102822.19;4961311;28;20063;-71
2023/05/18 02:01:03;;;;;;;7.60;2.47;;;;;;;8.74;79.98;102823.13;4954235;28;20046;-70
2023/05/18 02:03:31;;;;;;;7.30;2.30;;;;;;;8.75;78.36;102821.38;4944912;28;20051;-71
2023/05/18 02:05:58;;;;;;;8.18;2.33;;;;;;;8.71;79.00;102816.28;4956083;28;20567;-71
2023/05/18 02:08:25;;;;;;;7.72;2.42;;;;;;;8.72;78.30;102817.13;4961593;28;20050;-71
2023/05/18 02:10:52;;;;;;;7.13;2.22;;;;;;;8.62;80.31;102808.09;4961247;28;20106;-71
2023/05/18 02:13:18;;;;;;;6.40;2.38;;;;;;;8.58;80.42;102809.19;4943201;28;20075;-71
2023/05/18 02:15:45;;;;;;;8.00;2.70;;;;;;;8.54;80.13;102813.75;4975250;28;20050;-71
2023/05/18 02:18:11;;;;;;;7.13;2.90;;;;;;;8.49;81.31;102814.03;4966592;28;20055;-72
2023/05/18 02:20:39;;;;;;;8.05;2.40;;;;;;;8.48;82.09;102819.31;4959570;28;20050;-71
2023/05/18 02:23:05;;;;;;;5.18;2.25;;;;;;;8.49;81.00;102815.78;4973751;28;20055;-71
2023/05/18 02:25:32;;;;;;;10.10;2.63;;;;;;;8.43;81.79;102803.06;4964548;28;20058;-72
2023/05/18 02:27:59;;;;;;;6.82;2.42;;;;;;;8.42;82.04;102811.81;4943418;28;20108;-70
2023/05/18 02:30:25;;;;;;;10.48;2.60;;;;;;;8.40;82.58;102808.41;4958907;28;20059;-71
2023/05/18 02:32:52;;;;;;;9.40;2.47;;;;;;;8.32;82.96;102807.03;4961554;28;20553;-71
2023/05/18 02:35:18;;;;;;;8.35;2.83;;;;;;;8.30;84.64;102806.28;4956495;28;20055;-70
2023/05/18 02:37:46;;;;;;;11.88;2.58;;;;;;;8.32;83.48;102800.97;4953140;28;20138;-71
2023/05/18 02:40:14;;;;;;;7.10;2.63;;;;;;;8.29;83.13;102801.13;4964522;28;20058;-72
2023/05/18 02:42:41;;;;;;;5.07;2.22;;;;;;;8.33;81.77;102805.31;4951434;28;20055;-69
2023/05/18 02:45:08;;;;;;;9.23;2.70;;;;;;;8.31;83.45;102801.91;4960737;28;20062;-71
2023/05/18 02:47:35;;;;;;;10.27;2.40;;;;;;;8.30;84.17;102803.66;4954537;28;20061;-69
2023/05/18 02:50:01;;;;;;;7.75;2.45;;;;;;;8.33;82.29;102800.06;4961642;28;20059;-70
2023/05/18 02:52:28;;;;;;;9.45;2.75;;;;;;;8.30;83.44;102800.22;4964324;28;20089;-71
2023/05/18 02:54:55;;;;;;;9.75;2.50;;;;;;;8.28;83.96;102800.28;4966206;28;20475;-72
2023/05/18 02:57:21;;;;;;;7.85;2.63;;;;;;;8.24;84.98;102803.16;4945092;28;20546;-71
2023/05/18 02:59:48;;;;;;;9.70;2.72;;;;;;;8.27;83.56;102805.59;4977128;28;20503;-72
2023/05/18 03:02:15;;;;;;;8.82;2.95;;;;;;;8.22;84.24;102808.47;4964787;28;20059;-74
2023/05/18 03:04:42;;;;;;;8.25;2.67;;;;;;;8.18;84.84;102796.50;4955232;28;20936;-72
2023/05/18 03:07:09;;;;;;;7.75;2.67;;;;;;;8.18;84.60;102800.91;4969581;28;20072;-72
2023/05/18 03:09:36;;;;;;;9.27;2.50;;;;;;;8.14;83.89;102794.97;4967923;28;20086;-72
2023/05/18 03:12:03;;;;;;;9.40;2.92;;;;;;;8.13;84.55;102795.88;4963750;28;20125;-73
2023/05/18 03:14:29;;;;;;;7.18;2.78;;;;;;;8.18;83.97;102800.91;4952867;28;20511;-74
2023/05/18 03:16:56;;;;;;;7.90;2.55;;;;;;;8.22;82.68;102805.88;4961487;28;20093;-72
2023/05/18 03:19:23;;;;;;;7.55;2.75;;;;;;;8.17;85.31;102807.03;4964148;28;20055;-72
2023/05/18 03:21:50;;;;;;;6.88;3.08;;;;;;;8.13;84.52;102798.50;4968156;28;20129;-72
2023/05/18 03:24:16;;;;;;;8.52;2.60;;;;;;;8.12;86.15;102807.28;4952808;28;20062;-74
2023/05/18 03:26:43;;;;;;;9.85;3.20;;;;;;;8.08;86.26;102800.53;4969745;28;20154;-74
2023/05/18 03:29:12;;;;;;;8.82;2.90;;;;;;;8.05;86.14;102809.38;4961944;28;20511;-74
2023/05/18 03:31:39;;;;;;;9.32;2.80;;;;;;;8.05;87.11;102809.38;4965023;28;20078;-71
2023/05/18 03:34:06;;;;;;;13.27;3.35;;;;;;;8.03;89.10;102815.59;4959113;28;20058;-72
2023/05/18 03:36:32;;;;;;;12.20;3.28;;;;;;;8.03;87.42;102810.38;4966697;28;20046;-72
2023/05/18 03:38:58;;;;;;;7.35;2.90;;;;;;;8.03;87.20;102811.22;4964324;28;20165;-72
2023/05/18 03:41:25;;;;;;;11.65;3.20;;;;;;;8.00;87.90;102810.56;4955776;28;20054;-71
2023/05/18 03:43:52;;;;;;;8.82;2.92;;;;;;;8.01;86.72;102826.13;4966757;28;20047;-73
2023/05/18 03:46:19;;;;;;;9.30;2.83;;;;;;;8.00;88.08;102808.78;4954778;28;20059;-71
2023/05/18 03:48:45;;;;;;;6.95;3.22;;;;;;;8.00;87.52;102824.47;4957511;28;20050;-74
2023/05/18 03:51:12;;;;;;;9.43;2.85;;;;;;;8.02;87.61;102825.22;4944887;28;20499;-72
2023/05/18 03:53:39;;;;;;;8.40;2.85;;;;;;;8.01;87.60;102817.47;4984170;28;20127;-72
2023/05/18 03:56:06;;;;;;;9.60;2.92;;;;;;;8.01;88.86;102815.69;4962872;28;20066;-73
2023/05/18 03:58:33;;;;;;;12.98;3.05;;;;;;;8.03;85.86;102813.00;4962588;28;20518;-73
2023/05/18 04:01:00;;;;;;;10.00;3.03;;;;;;;8.07;86.49;102812.75;4961626;28;20055;-73
2023/05/18 04:03:26;;;;;;;9.75;2.70;;;;;;;8.08;86.48;102817.06;4952450;28;20134;-73
2023/05/18 04:05:54;;;;;;;7.75;2.67;;;;;;;8.09;86.75;102817.91;4949638;28;20055;-73
2023/05/18 04:08:24;;;;;;;6.65;2.40;;;;;;;8.09;87.37;102816.13;4951415;28;20130;-72
2023/05/18 04:10:51;;;;;;;5.63;2.40;;;;;;;8.10;86.17;102815.22;4945565;28;20162;-72
2023/05/18 04:13:18;;;;;;;6.90;2.40;;;;;;;8.12;86.28;102821.19;4940649;28;20733;-72
2023/05/18 04:15:44;;;;;;;10.98;2.50;;;;;;;8.16;84.75;102819.25;4944595;28;20420;-73
2023/05/18 04:18:12;;;;;;;7.35;2.60;;;;;;;8.18;85.93;102821.81;4965874;28;20059;-72
2023/05/18 04:20:41;;;;;;;9.93;2.72;;;;;;;8.24;84.62;102818.84;4959740;28;20055;-72
2023/05/18 04:23:08;;;;;;;11.10;2.70;;;;;;;8.24;85.86;102824.94;4950704;28;20058;-73
2023/05/18 04:25:38;;;;;;;11.05;2.33;;;;;;;8.23;84.97;102827.63;4941184;28;20730;-72
2023/05/18 04:28:04;;;;;;;11.30;2.83;;;;;;;8.26;84.34;102833.53;4960453;28;20062;-73
2023/05/18 04:30:31;;;;;;;8.52;2.28;;;;;;;8.29;85.26;102838.59;4960321;28;20054;-72
2023/05/18 04:32:59;;;;;;;7.93;2.92;;;;;;;8.32;85.27;102838.44;4960819;28;20719;-72
2023/05/18 04:35:26;;;;;;;10.57;2.40;;;;;;;8.30;86.07;102836.84;4951129;28;20737;-72
2023/05/18 04:37:53;;;;;;;7.38;2.13;;;;;;;8.32;85.30;102835.81;4941969;28;20478;-72
2023/05/18 04:40:20;;;;;;;11.27;3.65;;;;;;;8.24;86.33;102819.69;4962579;28;20054;-72
2023/05/18 04:42:47;;;;;;;6.05;2.30;;;;;;;8.40;86.35;102845.03;4961412;28;20063;-72
2023/05/18 04:45:16;;;;;;;7.37;2.73;;;;;;;8.46;84.80;102855.19;4961528;28;20126;-73
2023/05/18 04:47:45;;;;;;;6.78;2.40;;;;;;;8.50;84.05;102849.69;4962226;28;20054;-72
2023/05/18 04:50:16;;;;;;;8.70;3.00;;;;;;;8.58;83.59;102841.44;4959299;28;20062;-73
2023/05/18 04:52:47;;;;;;;9.02;2.30;;;;;;;8.65;84.02;102849.81;4964751;28;20488;-73
2023/05/18 04:55:24;;;;;;;10.52;3.13;;;;;;;8.70;82.88;102851.25;4961744;28;20688;-72
2023/05/18 04:57:55;;;;;;;8.20;2.70;;;;;;;8.74;83.41;102854.50;4959239;28;20434;-73
2023/05/18 05:00:23;;;;;;;8.82;2.72;;;;;;;8.78;84.06;102844.72;4936617;28;20181;-73
2023/05/18 05:02:50;;;;;;;8.97;2.73;;;;;;;8.79;84.68;102852.50;4959016;28;20487;-73
2023/05/18 05:05:17;;;;;;;12.10;2.65;;;;;;;8.84;83.97;102857.47;4968512;28;20520;-73
2023/05/18 05:07:44;;;;;;;9.55;2.78;;;;;;;8.86;84.79;102868.69;4943350;28;20435;-72
2023/05/18 05:10:10;;;;;;;8.75;2.63;;;;;;;8.89;84.59;102858.06;4977337;28;20058;-72
2023/05/18 05:12:37;;;;;;;10.63;2.72;;;;;;;9.00;80.93;102855.69;4952300;28;20418;-73
2023/05/18 05:15:04;;;;;;;6.82;2.53;;;;;;;9.07;82.38;102857.03;4943863;29;20086;-72
2023/05/18 05:17:31;;;;;;;9.13;2.60;;;;;;;9.14;79.06;102860.16;4961963;28;20050;-73
2023/05/18 05:19:58;;;;;;;10.60;2.72;;;;;;;9.17;80.01;102867.81;4961752;28;20174;-73
2023/05/18 05:22:24;;;;;;;8.60;2.30;;;;;;;9.17;80.36;102864.34;4965228;28;20098;-72
2023/05/18 05:24:51;;;;;;;8.13;2.10;;;;;;;9.19;82.76;102859.88;4955875;28;20385;-73
2023/05/18 05:27:18;;;;;;;7.03;2.17;;;;;;;9.24;81.41;102863.94;4962524;28;20483;-73
2023/05/18 05:29:46;;;;;;;8.45;2.45;;;;;;;9.17;79.37;102853.88;4942570;28;20063;-72
2023/05/18 05:32:12;;;;;;;17.92;2.88;;;;;;;9.24;79.16;102860.47;4961960;28;20785;-72
2023/05/18 05:34:39;;;;;;;6.50;2.35;;;;;;;9.15;79.63;102853.97;4952748;28;20050;-72
2023/05/18 05:37:06;;;;;;;4.85;2.15;;;;;;;9.23;79.06;102867.50;4964532;28;20059;-72
2023/05/18 05:39:32;;;;;;;16.98;2.63;;;;;;;9.24;77.76;102861.31;4949190;28;20058;-72
2023/05/18 05:41:59;;;;;;;8.65;2.28;;;;;;;9.20;77.05;102854.56;4945638;28;20740;-73
2023/05/18 05:44:26;;;;;;;6.53;2.20;;;;;;;9.24;77.82;102847.38;4966109;28;20097;-73
2023/05/18 05:46:52;;;;;;;9.93;2.42;;;;;;;9.24;78.47;102856.06;4963156;28;20050;-72
2023/05/18 05:49:19;;;;;;;8.07;2.35;;;;;;;9.32;77.60;102855.63;4977525;28;20066;-73
2023/05/18 05:51:45;;;;;;;8.48;2.60;;;;;;;9.33;78.33;102852.09;4958302;28;20538;-73
2023/05/18 05:54:12;;;;;;;9.00;2.72;;;;;;;9.35;79.07;102857.22;4953089;28;20079;-73
2023/05/18 05:56:39;;;;;;;6.28;2.03;;;;;;;9.38;77.23;102857.91;4942157;28;20055;-72
2023/05/18 05:59:05;;;;;;;7.10;2.25;;;;;;;9.40;77.33;102856.03;4938049;28;20063;-72
2023/05/18 06:01:33;;;;;;;9.27;2.47;;;;;;;9.47;77.99;102860.00;4963286;28;20555;-72
2023/05/18 06:04:01;;;;;;;6.68;2.22;;;;;;;9.44;77.31;102854.09;4945934;28;20083;-72
2023/05/18 06:06:27;;;;;;;9.63;2.63;;;;;;;9.49;77.23;102854.66;4964982;28;20538;-73
2023/05/18 06:08:54;;;;;;;10.75;2.53;;;;;;;9.52;77.20;102858.88;4953441;28;20428;-72
2023/05/18 06:11:21;;;;;;;10.02;2.20;;;;;;;9.58;75.89;102856.72;4944235;28;20074;-72
2023/05/18 06:13:48;;;;;;;7.03;1.92;;;;;;;9.59;76.20;102860.22;4962161;28;20514;-72
2023/05/18 06:16:14;;;;;;;9.68;2.63;;;;;;;9.62;75.51;102863.47;4949992;28;20055;-72
2023/05/18 06:18:41;;;;;;;11.63;2.33;;;;;;;9.68;74.98;102860.50;4975664;28;20050;-72
2023/05/18 06:21:08;;;;;;;9.63;2.30;;;;;;;9.67;74.25;102857.97;4975180;28;20054;-72
2023/05/18 06:23:35;;;;;;;9.60;2.13;;;;;;;9.69;75.45;102863.97;4956439;28;20055;-72
2023/05/18 06:26:01;;;;;;;11.93;2.47;;;;;;;9.68;75.18;102860.50;4949467;28;20051;-73
2023/05/18 06:28:28;;;;;;;9.95;2.75;;;;;;;9.70;75.80;102855.16;4948155;28;20078;-72
2023/05/18 06:30:55;;;;;;;6.43;2.00;;;;;;;9.75;75.75;102866.22;4968689;28;20058;-73
2023/05/18 06:33:22;;;;;;;11.55;2.20;;;;;;;9.75;77.72;102863.59;4962191;28;20050;-73
2023/05/18 06:35:50;;;;;;;8.60;2.40;;;;;;;9.82;75.64;102864.94;4983401;28;20054;-73
2023/05/18 06:38:16;;;;;;;9.23;2.35;;;;;;;9.82;75.74;102874.56;4955632;28;20055;-73
2023/05/18 06:40:43;;;;;;;8.75;2.10;;;;;;;9.84;76.12;102873.56;4948258;28;20057;-72
2023/05/18 06:43:10;;;;;;;11.48;2.97;;;;;;;9.88;75.11;102876.84;4960564;28;20059;-72
2023/05/18 06:45:36;;;;;;;7.45;2.22;;;;;;;9.89;75.03;102881.13;4962313;28;20060;-72
2023/05/18 06:48:04;;;;;;;11.07;4.00;;;;;;;9.81;74.74;102880.75;4951812;28;20059;-74
2023/05/18 06:50:31;;;;;;;11.60;2.92;;;;;;;9.87;75.27;102880.38;4959934;28;20059;-73
2023/05/18 06:52:57;;;;;;;7.25;2.55;;;;;;;9.91;75.92;102884.50;4953477;28;20050;-72
2023/05/18 06:55:24;;;;;;;7.68;2.20;;;;;;;9.97;75.68;102883.28;4961764;28;20051;-72
2023/05/18 06:57:51;;;;;;;6.50;2.20;;;;;;;10.03;75.00;102885.53;4950927;28;20066;-73
2023/05/18 07:00:19;;;;;;;9.00;2.10;;;;;;;10.05;74.78;102886.28;4960089;28;20445;-74
2023/05/18 07:02:46;;;;;;;8.55;2.15;;;;;;;10.11;74.46;102885.91;4962248;28;20051;-72
2023/05/18 07:05:13;;;;;;;9.30;2.42;;;;;;;10.09;73.53;102886.03;4978479;28;20051;-72
2023/05/18 07:07:40;;;;;;;7.18;2.00;;;;;;;10.14;74.57;102891.00;4958785;28;20047;-73
2023/05/18 07:10:07;;;;;;;7.53;1.92;;;;;;;10.20;74.16;102876.66;4965535;28;20051;-74
2023/05/18 07:12:34;;;;;;;12.65;2.33;;;;;;;10.29;74.94;102884.81;4944199;28;20127;-74
2023/05/18 07:15:01;;;;;;;10.60;2.80;;;;;;;10.33;74.84;102885.50;4972307;28;20054;-74
2023/05/18 07:17:32;;;;;;;6.93;2.10;;;;;;;10.40;72.67;102885.97;4963370;28;20062;-74
2023/05/18 07:19:59;;;;;;;11.75;2.05;;;;;;;10.49;71.65;102888.03;4956886;28;20134;-73
2023/05/18 07:22:25;;;;;;;11.07;2.22;;;;;;;10.51;71.63;102888.78;4965786;28;20054;-73
2023/05/18 07:24:52;;;;;;;13.82;2.42;;;;;;;10.60;70.87;102893.44;4957964;28;20051;-74
2023/05/18 07:27:19;;;;;;;11.05;2.13;;;;;;;10.64;71.77;102886.22;4966735;28;20055;-74
2023/05/18 07:29:46;;;;;;;7.60;2.15;;;;;;;10.68;70.46;102891.19;4960720;28;20058;-74
2023/05/18 07:32:12;;;;;;;11.38;2.33;;;;;;;10.78;69.65;102894.09;4950291;28;20113;-73
2023/05/18 07:34:41;;;;;;;12.32;2.50;;;;;;;10.79;70.43;102895.75;4969788;28;20051;-74
2023/05/18 07:37:08;;;;;;;;;;;;;;;10.92;68.66;102897.59;4943420;28;20055;-74
2023/05/18 07:39:34;;;;;;;10.23;2.58;;;;;;;10.95;68.28;102900.03;4947937;28;19921;-74
2023/05/18 07:42:01;;;;;;;6.85;2.33;;;;;;;10.99;67.90;102904.97;4954025;28;20409;-74
2023/05/18 07:44:27;;;;;;;8.00;2.13;;;;;;;11.10;67.42;102895.59;4949262;28;20647;-74
2023/05/18 07:46:54;;;;;;;9.35;2.28;;;;;;;11.21;66.76;102893.09;4950529;28;20146;-74
2023/05/18 07:49:24;;;;;;;10.90;2.83;;;;;;;11.26;66.34;102893.63;4951278;28;20057;-74
2023/05/18 07:51:51;;;;;;;7.80;2.28;;;;;;;11.33;67.34;102901.94;4954208;28;20058;-73
2023/05/18 07:54:18;;;;;;;8.70;2.17;;;;;;;11.48;66.91;102907.03;4962502;28;20067;-74
2023/05/18 07:56:45;;;;;;;6.50;2.22;;;;;;;11.57;64.48;102902.97;4968111;28;20050;-75
2023/05/18 07:59:12;;;;;;;9.52;2.60;;;;;;;11.64;65.07;102895.50;4954028;28;20514;-73
2023/05/18 08:01:40;;;;;;;9.95;2.78;;;;;;;11.79;65.52;102906.78;4966969;28;20504;-74
2023/05/18 08:04:06;;;;;;;7.22;2.40;;;;;;;11.87;65.32;102907.13;4954527;28;21063;-75
2023/05/18 08:06:33;;;;;;;10.25;2.55;;;;;;;11.94;63.52;102905.78;4958868;28;20080;-74
2023/05/18 08:09:00;;;;;;;9.30;2.70;;;;;;;12.05;62.76;102902.41;4970145;28;20141;-73
2023/05/18 08:11:26;;;;;;;7.90;1.90;;;;;;;12.18;62.37;102908.53;4961895;28;20590;-73
2023/05/18 08:13:53;;;;;;;11.95;2.58;;;;;;;12.25;62.42;102914.19;4972230;28;20141;-73
2023/05/18 08:16:19;;;;;;;8.75;2.25;;;;;;;12.33;60.75;102913.66;4958674;28;20069;-74
2023/05/18 08:18:46;;;;;;;9.65;2.53;;;;;;;12.42;61.53;102911.22;4961942;28;20062;-73
2023/05/18 08:21:13;;;;;;;11.30;2.33;;;;;;;12.55;61.19;102923.56;4952761;28;20070;-73
2023/05/18 08:23:39;;;;;;;9.52;3.15;;;;;;;12.61;60.40;102916.06;4949110;28;20141;-73
2023/05/18 08:26:07;;;;;;;8.73;2.17;;;;;;;12.93;60.66;102914.69;4969405;28;20101;-73
2023/05/18 08:28:35;;;;;;;12.07;2.40;;;;;;;13.34;62.88;102922.25;4954103;28;20508;-73
2023/05/18 08:31:02;;;;;;;11.35;2.60;;;;;;;13.59;57.64;102918.63;4981872;28;20085;-73
2023/05/18 08:33:28;;;;;;;8.98;2.67;;;;;;;13.98;57.64;102905.19;4957594;28;20660;-73
2023/05/18 08:35:55;;;;;;;10.48;2.47;;;;;;;14.29;55.27;102908.06;4977790;28;20058;-73
2023/05/18 08:38:22;;;;;;;9.25;2.28;;;;;;;14.54;55.46;102899.06;4943672;28;20535;-73
2023/05/18 08:41:04;;;;;;;9.32;2.45;;;;;;;14.96;55.21;102905.38;4955442;28;20062;-73
2023/05/18 08:43:34;;;;;;;9.82;2.17;;;;;;;15.31;53.88;102899.00;4981173;28;20179;-72
2023/05/18 08:46:09;;;;;;;8.55;2.13;;;;;;;15.74;51.96;102898.09;4953170;28;20051;-73
2023/05/18 08:48:36;;;;;;;8.68;2.25;;;;;;;15.53;51.94;102900.72;4961171;28;20499;-73
2023/05/18 08:51:06;;;;;;;6.13;2.05;;;;;;;15.50;52.24;102893.00;4954116;28;20050;-73
2023/05/18 08:53:32;;;;;;;11.10;2.63;;;;;;;15.34;51.47;102890.81;4960625;28;20558;-72
2023/05/18 08:55:59;;;;;;;9.50;2.20;;;;;;;15.25;52.72;102886.31;4966918;28;20060;-74
2023/05/18 08:58:34;;;;;;;10.93;2.40;;;;;;;15.23;52.51;102883.78;4961877;28;20055;-72
2023/05/18 09:01:02;;;;;;;8.73;2.63;;;;;;;15.19;53.13;102889.44;4941669;28;20141;-72
2023/05/18 09:03:29;;;;;;;;;;;;;;;15.61;51.49;102882.38;4964635;28;20047;-72
2023/05/18 09:05:59;;;;;;;10.60;2.50;;;;;;;16.09;50.28;102882.81;4967656;28;20534;-72
2023/05/18 09:08:27;;;;;;;7.07;1.98;;;;;;;16.13;48.36;102871.84;4942196;28;20146;-71
2023/05/18 09:10:56;;;;;;;7.95;2.40;;;;;;;16.20;49.07;102877.44;4946908;28;20076;-73
2023/05/18 09:13:22;;;;;;;6.70;2.08;;;;;;;16.57;48.77;102866.25;4955667;28;20613;-73
2023/05/18 09:15:50;;;;;;;6.15;2.22;;;;;;;16.98;48.87;102867.88;4974246;28;20055;-72
2023/05/18 09:18:16;;;;;;;9.60;2.13;;;;;;;17.40;48.73;102869.38;4976068;28;20058;-73
2023/05/18 09:20:44;;;;;;;7.65;2.53;;;;;;;17.64;47.21;102868.94;4949384;28;20094;-73
2023/05/18 09:23:11;;;;;;;9.02;2.70;;;;;;;17.72;45.73;102866.41;4954661;28;20070;-72
2023/05/18 09:25:43;;;;;;;8.57;2.22;;;;;;;17.70;45.83;102862.19;4958414;28;20059;-72
2023/05/18 09:28:13;;;;;;;8.40;2.33;;;;;;;17.84;46.22;102855.63;4947099;28;20062;-74
2023/05/18 09:30:41;;;;;;;9.00;2.38;;;;;;;17.98;45.40;102850.69;4956911;28;20057;-74
2023/05/18 09:33:20;;;;;;;8.98;2.35;;;;;;;18.12;46.06;102848.53;4967559;28;20503;-74
2023/05/18 09:35:49;;;;;;;9.27;2.45;;;;;;;18.16;44.81;102849.91;4955795;28;20459;-74
2023/05/18 09:38:20;;;;;;;9.35;2.38;;;;;;;18.22;45.80;102851.97;4957606;28;20051;-74
2023/05/18 09:40:48;;;;;;;9.00;2.83;;;;;;;18.34;46.09;102850.78;4958500;28;20094;-74
2023/05/18 09:43:19;;;;;;;7.80;2.42;;;;;;;18.40;45.99;102852.00;4950383;28;20109;-74
2023/05/18 09:45:48;;;;;;;8.88;2.45;;;;;;;18.33;45.31;102858.94;4939212;28;20139;-75
2023/05/18 09:48:15;;;;;;;9.90;2.47;;;;;;;18.16;44.26;102853.41;4968590;28;20107;-74
2023/05/18 09:50:43;;;;;;;8.68;2.80;;;;;;;18.06;44.53;102857.09;4963931;28;20081;-74
2023/05/18 09:53:12;;;;;;;9.00;2.92;;;;;;;17.91;44.92;102849.59;4974516;28;20046;-74
2023/05/18 09:55:48;;;;;;;7.78;2.67;;;;;;;17.89;45.29;102846.25;4961780;28;20034;-75
2023/05/18 09:58:15;;;;;;;9.02;3.00;;;;;;;17.75;45.05;102844.03;4962336;28;20031;-74
2023/05/18 10:00:50;;;;;;;9.00;2.83;;;;;;;17.71;45.10;102842.66;4944369;28;20054;-74
2023/05/18 10:03:22;;;;;;;8.65;2.50;;;;;;;17.74;44.92;102843.22;4973492;28;20889;-76
2023/05/18 10:05:49;;;;;;;8.18;2.28;;;;;;;17.91;45.72;102846.94;4962004;28;20137;-76
2023/05/18 10:08:16;;;;;;;9.80;2.70;;;;;;;17.86;45.04;102837.75;4970047;28;20061;-74
2023/05/18 10:10:45;;;;;;;10.98;2.80;;;;;;;17.99;45.43;102832.94;4943223;28;20488;-74
2023/05/18 10:13:16;;;;;;;9.02;2.65;;;;;;;18.10;46.44;102838.06;4962203;28;20419;-74
2023/05/18 10:15:53;;;;;;;9.40;2.58;;;;;;;18.26;44.89;102833.94;4970367;28;20464;-74
2023/05/18 10:18:24;;;;;;;9.15;2.70;;;;;;;18.45;44.52;102827.69;4958718;28;20047;-74
2023/05/18 10:20:53;;;;;;;11.50;2.30;;;;;;;18.47;44.96;102829.19;4958242;28;20132;-74
2023/05/18 10:23:21;;;;;;;8.50;2.00;;;;;;;18.56;45.96;102838.06;4947891;28;20177;-74
2023/05/18 10:25:48;;;;;;;;;;;;;;;18.53;44.24;102841.88;4950004;28;20816;-74
2023/05/18 10:28:24;;;;;;;8.05;2.55;;;;;;;18.61;44.64;102833.16;4958739;28;19926;-75
2023/05/18 10:30:56;;;;;;;9.63;2.15;;;;;;;18.48;43.42;102828.19;4979356;28;20491;-74
2023/05/18 10:33:24;;;;;;;8.73;2.40;;;;;;;18.49;44.45;102821.06;4965367;28;20134;-74
2023/05/18 10:35:56;;;;;;;7.05;2.10;;;;;;;18.59;45.06;102829.81;4958698;28;20058;-74
2023/05/18 10:38:27;;;;;;;9.85;3.00;;;;;;;18.78;44.35;102816.38;4962528;28;20057;-74
2023/05/18 10:40:55;;;;;;;11.65;3.00;;;;;;;18.87;43.48;102817.31;4951580;28;20057;-74
2023/05/18 10:43:26;;;;;;;12.20;2.70;;;;;;;18.86;43.72;102822.78;4950491;28;20046;-74
2023/05/18 10:45:57;;;;;;;6.68;2.20;;;;;;;19.07;43.69;102819.78;4946806;28;20061;-75
2023/05/18 10:48:25;;;;;;;7.10;2.33;;;;;;;19.11;42.76;102810.50;4970188;28;20546;-74
2023/05/18 10:50:54;;;;;;;11.00;2.45;;;;;;;19.12;42.57;102817.53;4971751;28;20118;-75
2023/05/18 10:53:23;;;;;;;11.52;3.05;;;;;;;19.08;42.68;102822.31;4938555;28;20129;-75
2023/05/18 10:55:50;;;;;;;10.48;2.55;;;;;;;19.15;42.38;102817.19;4985458;28;20070;-74
2023/05/18 10:58:20;;;;;;;11.57;2.78;;;;;;;19.25;42.94;102817.09;4975864;28;20122;-75
2023/05/18 11:00:50;;;;;;;7.85;2.58;;;;;;;19.24;42.95;102810.94;4958170;28;20102;-74
2023/05/18 11:03:18;;;;;;;8.00;2.50;;;;;;;19.17;42.76;102810.75;4954832;28;20054;-75
2023/05/18 11:05:51;;;;;;;7.50;2.17;;;;;;;19.09;43.55;102805.38;4970964;28;20423;-75
2023/05/18 11:08:27;;;;;;;9.35;2.65;;;;;;;18.94;43.12;102810.41;4947290;28;20054;-75
2023/05/18 11:11:02;;;;;;;9.13;2.75;;;;;;;19.12;43.67;102804.22;4956002;28;20109;-75
2023/05/18 11:13:31;;;;;;;7.20;2.30;;;;;;;19.12;42.24;102802.38;4967723;28;20055;-75
2023/05/18 11:15:58;;;;;;;7.10;2.22;;;;;;;19.23;42.58;102803.97;4956965;28;20070;-75
2023/05/18 11:18:38;;;;;;;9.27;3.17;;;;;;;19.27;43.20;102802.66;4959495;28;20046;-75
2023/05/18 11:21:33;;;;;;;7.63;2.40;;;;;;;19.45;42.29;102797.28;4947457;28;20137;-75
2023/05/18 11:24:29;;;;;;;6.50;2.60;;;;;;;19.61;41.77;102793.88;4965843;28;21150;-75
2023/05/18 11:27:05;;;;;;;6.97;2.38;;;;;;;19.64;42.08;102790.91;4934157;28;20475;-75
2023/05/18 11:29:39;;;;;;;7.90;3.28;;;;;;;19.75;41.52;102792.50;4954872;28;20472;-75
2023/05/18 11:32:28;;;;;;;8.23;2.50;;;;;;;19.93;43.07;102793.25;4947398;28;20074;-75
2023/05/18 11:34:57;;;;;;;7.80;2.78;;;;;;;19.92;42.69;102790.75;4959855;28;20054;-75